Madison, AL (35757)

12:12 PM CST on January 26, 2015 (GMT -0600)
The Bend | Change Station
CLOSE
Current Station
Personal Weather Station
Location: Madison, AL
Elevation: 794 ft
Nearby Weather Stations

Elev 794 ft 34.79 °N, 86.74 °W | Updated 2 minutes ago

Overcast
Overcast
37.8 °F
Feels Like 38 °F
N
0.0
Wind Variable Wind from South
Gusts 0.7 mph

Today
High -- | Low -- °F
--% Chance of Precip.
Yesterday
High -- | Low -- °F
Precip. -- in
6:49 AM 5:09 PM
Waxing Crescent, 45% visible
Pressure 30.01 in
Visibility 9.0 miles
Clouds Overcast 1800 ft
Windchill 38 °F
Dew Point 32 °F
Humidity 81%
Rainfall 0.00 in
Snow Depth Not available.
UV 1 out of 12
Pollen 1.60 out of 12
Air Quality Not available.
Flu Activity Not available.
METAR KHUA 261758Z AUTO 31009KT 9SM OVC018 03/M01 A3000 RMK AO2 SLP163 T00331006 10041 20024 50007

More Conditions Fewer Conditions

Pressure 30.01 in
Visibility 9.0 miles
Clouds Overcast 1800 ft
Windchill 38 °F
Dew Point 32 °F
Humidity 81%
Rainfall 0.00 in
Snow Depth Not available.
UV 1 out of 12
Pollen 1.60 out of 12
Air Quality Not available.
Flu Activity Not available.
METAR KHUA 261758Z AUTO 31009KT 9SM OVC018 03/M01 A3000 RMK AO2 SLP163 T00331006 10041 20024 50007

More Conditions Fewer Conditions

10-Day Weather Forecast

Almanac

Astronomy

Jan. 26, 2015 Rise Set
Actual Time
Civil Twilight
Nautical Twilight
Astronomical Twilight
Moon
Length of Visible Light
Length of Day
Tomorrow will be .
, % of the Moon is Illuminated

Today's Extremes

State Highs State Lows

Community

WunderPhotos

Upload Photos

1,790,304 photos uploaded!

WunderBlogs® & News

Nearby

Air Quality

  Air Quality AQ Index Pollutant
Not available.

Snow Depth

Station Depth Elevation

Earthquake Activity

City Distance Mag. Time & Date
Minimum magnitude displayed is 2.5.

Coastal Water Temperatures

Place Temperature

Nearby Weather Stations